Time;durP1;ratioP1;P1;durP2;ratioP2;P2;SDS_P1;SDS_P2;PMS_P1;PMS_P2;Temp;Humidity;BMP_temperature;BMP_pressure;BME280_temperature;BME280_humidity;BME280_pressure;Samples;Min_cycle;Max_cycle;Signal;HPM_P1;HPM_P2
2022/06/11 00:01:38;;;;;;;4.90;4.03;;;;;;;17.28;71.78;99269.56;5032447;27;103259;-58
2022/06/11 00:04:09;;;;;;;4.70;3.53;;;;;;;17.22;71.87;99264.78;5022144;27;102674;-59
2022/06/11 00:06:41;;;;;;;3.65;3.20;;;;;;;17.38;71.28;99268.59;5033243;27;102666;-58
2022/06/11 00:09:10;;;;;;;3.93;3.40;;;;;;;17.25;71.16;99261.84;5031241;27;103456;-59
2022/06/11 00:11:40;;;;;;;3.65;3.05;;;;;;;17.38;71.15;99267.75;5027261;27;103333;-58
2022/06/11 00:14:09;;;;;;;3.63;3.33;;;;;;;17.30;71.51;99263.09;5026580;27;102862;-59
2022/06/11 00:16:38;;;;;;;3.88;3.30;;;;;;;17.35;71.22;99260.00;5022654;27;102702;-59
2022/06/11 00:19:09;;;;;;;3.80;3.20;;;;;;;17.26;71.64;99260.88;5029391;27;103217;-58
2022/06/11 00:21:40;;;;;;;3.40;3.10;;;;;;;17.31;71.16;99263.97;5034611;27;103618;-59
2022/06/11 00:24:09;;;;;;;4.00;3.10;;;;;;;17.45;70.11;99255.53;5023945;27;102655;-58
2022/06/11 00:26:37;;;;;;;5.28;3.88;;;;;;;17.16;71.67;99266.19;5030528;27;102733;-59
2022/06/11 00:29:07;;;;;;;4.68;3.90;;;;;;;17.03;72.34;99270.09;5035477;27;103910;-59
2022/06/11 00:31:35;;;;;;;4.00;3.65;;;;;;;17.10;72.51;99263.22;5018792;27;103069;-59
2022/06/11 00:34:03;;;;;;;3.15;2.85;;;;;;;17.26;71.59;99266.22;5031253;27;102735;-59
2022/06/11 00:36:32;;;;;;;4.27;3.87;;;;;;;17.21;71.82;99261.25;5026737;27;104346;-59
2022/06/11 00:39:00;;;;;;;3.63;3.33;;;;;;;17.12;72.61;99263.94;5025490;27;103967;-58
2022/06/11 00:41:30;;;;;;;4.28;3.88;;;;;;;17.00;72.96;99267.72;5023273;27;103272;-59
2022/06/11 00:43:58;;;;;;;4.70;4.03;;;;;;;16.78;74.24;99258.97;5029056;27;103733;-59
2022/06/11 00:46:55;;;;;;;4.70;4.30;;;;;;;16.57;75.07;99258.19;5027541;27;102726;-58
2022/06/11 00:49:30;;;;;;;5.13;4.18;;;;;;;16.48;75.75;99266.94;5025144;27;104155;-59
2022/06/11 00:52:06;;;;;;;5.75;4.32;;;;;;;16.40;75.90;99272.09;5022621;27;103211;-58
2022/06/11 00:54:38;;;;;;;6.65;4.80;;;;;;;15.72;79.61;99270.00;5033551;27;103247;-58
2022/06/11 00:57:08;;;;;;;6.22;5.38;;;;;;;15.66;80.57;99265.22;5026234;27;102748;-58
2022/06/11 00:59:41;;;;;;;6.85;4.65;;;;;;;16.10;78.89;99264.09;5022533;27;103051;-59
2022/06/11 01:02:11;;;;;;;4.15;3.50;;;;;;;16.40;76.69;99256.09;5028876;27;103212;-59
2022/06/11 01:04:49;;;;;;;6.03;4.70;;;;;;;16.51;75.88;99258.69;5025777;27;102625;-58
2022/06/11 01:07:50;;;;;;;5.20;4.55;;;;;;;16.57;75.46;99255.50;5030343;27;103993;-58
2022/06/11 01:10:34;;;;;;;4.57;4.17;;;;;;;16.56;75.38;99250.31;5031501;27;104141;-58
2022/06/11 01:13:11;;;;;;;5.82;4.97;;;;;;;16.49;75.85;99247.31;5023890;27;103236;-58
2022/06/11 01:15:45;;;;;;;5.90;4.82;;;;;;;16.32;77.15;99253.28;5023276;27;102709;-58
2022/06/11 01:18:25;;;;;;;4.97;4.43;;;;;;;16.50;76.24;99251.66;5026620;27;103361;-58
2022/06/11 01:21:01;;;;;;;4.97;4.40;;;;;;;16.61;75.14;99254.28;5024080;27;103238;-58
2022/06/11 01:24:13;;;;;;;4.72;4.32;;;;;;;16.64;74.98;99256.66;5026068;27;103244;-58
2022/06/11 01:27:26;;;;;;;4.57;4.10;;;;;;;16.69;74.49;99257.09;5033195;27;102754;-58
2022/06/11 01:30:01;;;;;;;4.97;4.47;;;;;;;16.54;75.50;99257.59;5027033;27;102674;-59
2022/06/11 01:32:36;;;;;;;3.70;3.40;;;;;;;16.63;74.99;99257.63;5028952;27;103589;-59
2022/06/11 01:35:22;;;;;;;4.30;3.90;;;;;;;16.70;73.73;99258.78;5027003;27;103236;-58
2022/06/11 01:37:54;;;;;;;4.03;3.63;;;;;;;16.68;73.79;99255.41;5025905;27;103128;-58
2022/06/11 01:40:32;;;;;;;4.32;3.92;;;;;;;16.58;74.70;99257.22;5022138;27;102679;-59
2022/06/11 01:43:04;;;;;;;4.50;4.10;;;;;;;16.54;74.72;99257.59;5026376;27;104197;-58
2022/06/11 01:45:37;;;;;;;4.72;4.32;;;;;;;16.48;75.08;99260.75;5025696;27;103823;-58
2022/06/11 01:48:11;;;;;;;4.22;3.83;;;;;;;16.37;75.14;99261.69;5027544;27;102679;-58
2022/06/11 01:50:42;;;;;;;5.38;4.90;;;;;;;16.35;76.06;99257.47;5031011;27;102578;-58
2022/06/11 01:53:40;;;;;;;4.70;4.30;;;;;;;16.40;75.52;99256.09;5024439;27;103225;-58
2022/06/11 01:56:47;;;;;;;5.00;4.18;;;;;;;16.58;75.06;99254.53;5049029;27;103016;-58
2022/06/11 01:59:36;;;;;;;4.45;3.90;;;;;;;16.59;75.39;99245.53;5017770;27;102775;-59
2022/06/11 02:02:23;;;;;;;5.15;4.32;;;;;;;16.61;75.01;99242.75;5023918;27;102751;-58
2022/06/11 02:05:00;;;;;;;3.90;3.60;;;;;;;16.70;74.36;99248.09;5028805;27;103362;-58
2022/06/11 02:07:35;;;;;;;4.82;4.32;;;;;;;16.60;75.53;99247.25;5025150;27;103230;-58
2022/06/11 02:10:09;;;;;;;5.60;5.00;;;;;;;16.43;76.08;99247.84;5026037;27;102579;-58
2022/06/11 02:12:44;;;;;;;5.15;4.40;;;;;;;16.47;76.48;99246.59;5023481;27;102705;-58
2022/06/11 02:15:17;;;;;;;4.90;4.40;;;;;;;16.51;76.60;99242.69;5029447;27;103261;-60
2022/06/11 02:17:51;;;;;;;4.15;3.75;;;;;;;16.71;75.50;99240.94;5030618;27;103344;-59
2022/06/11 02:20:24;;;;;;;3.53;3.23;;;;;;;16.78;74.32;99245.63;5022896;27;103202;-58
2022/06/11 02:22:58;;;;;;;4.20;3.90;;;;;;;16.78;75.16;99240.28;5019636;27;103010;-59
2022/06/11 02:25:29;;;;;;;5.87;4.57;;;;;;;16.72;75.28;99246.16;5021630;27;104126;-58
2022/06/11 02:28:00;;;;;;;4.50;4.10;;;;;;;16.77;74.78;99251.94;5027685;27;104373;-58
2022/06/11 02:30:31;;;;;;;4.70;3.63;;;;;;;16.75;74.68;99242.38;5025499;27;102895;-59
2022/06/11 02:33:01;;;;;;;4.00;3.60;;;;;;;16.80;74.42;99254.31;5023204;27;102615;-58
2022/06/11 02:35:36;;;;;;;3.30;3.00;;;;;;;16.85;73.45;99250.38;5034058;27;104384;-59
2022/06/11 02:38:05;;;;;;;3.10;2.85;;;;;;;16.80;73.80;99254.31;5028910;27;103893;-59
2022/06/11 02:40:37;;;;;;;3.05;2.78;;;;;;;16.87;73.16;99251.13;5027677;27;102672;-58
2022/06/11 02:43:05;;;;;;;4.50;3.80;;;;;;;16.80;73.95;99249.00;5027245;27;103851;-58
2022/06/11 02:45:33;;;;;;;3.80;3.40;;;;;;;16.86;74.25;99252.09;5029070;27;103249;-58
2022/06/11 02:48:06;;;;;;;4.80;3.63;;;;;;;16.81;73.51;99245.31;5026585;27;102983;-58
2022/06/11 02:50:36;;;;;;;4.18;3.78;;;;;;;16.85;73.82;99245.03;5029358;27;102808;-58
2022/06/11 02:53:06;;;;;;;4.22;3.65;;;;;;;16.79;73.82;99251.78;5025993;27;103021;-58
2022/06/11 02:55:37;;;;;;;3.13;2.88;;;;;;;16.70;73.95;99253.44;5031789;27;103301;-58
2022/06/11 02:58:07;;;;;;;5.68;4.95;;;;;;;16.26;75.91;99259.13;5027563;27;102972;-58
2022/06/11 03:00:38;;;;;;;3.90;3.53;;;;;;;16.51;75.04;99256.00;5040419;27;103861;-58
2022/06/11 03:03:08;;;;;;;3.85;3.40;;;;;;;16.61;74.35;99253.41;5029499;27;102739;-58
2022/06/11 03:05:38;;;;;;;3.55;3.30;;;;;;;16.67;73.96;99247.53;5029057;27;103427;-58
2022/06/11 03:08:08;;;;;;;3.93;3.53;;;;;;;16.70;73.23;99253.44;5030321;27;103497;-58
2022/06/11 03:10:36;;;;;;;3.40;3.10;;;;;;;16.77;72.73;99249.25;5031512;27;102758;-59
2022/06/11 03:13:05;;;;;;;3.50;3.20;;;;;;;16.71;73.43;99249.78;5031551;27;102682;-58
2022/06/11 03:15:35;;;;;;;3.42;3.13;;;;;;;16.69;73.18;99261.59;5034131;27;104141;-59
2022/06/11 03:18:03;;;;;;;3.75;3.45;;;;;;;16.69;73.43;99262.44;5030144;27;103221;-58
2022/06/11 03:20:33;;;;;;;3.58;3.28;;;;;;;16.65;73.60;99266.34;5030775;27;102565;-59
2022/06/11 03:23:01;;;;;;;4.10;3.70;;;;;;;16.63;73.15;99262.97;5026539;27;104058;-58
2022/06/11 03:25:29;;;;;;;3.88;3.58;;;;;;;16.65;73.39;99266.34;5023123;27;103268;-58
2022/06/11 03:27:59;;;;;;;4.28;3.70;;;;;;;16.64;73.42;99270.00;5032747;27;103224;-58
2022/06/11 03:30:27;;;;;;;3.85;3.53;;;;;;;16.69;73.17;99267.78;5027553;27;103787;-58
2022/06/11 03:32:55;;;;;;;3.60;3.30;;;;;;;16.71;73.05;99276.47;5027824;27;102710;-58
2022/06/11 03:35:23;;;;;;;3.70;3.03;;;;;;;16.74;72.59;99273.53;5030218;27;103413;-58
2022/06/11 03:37:53;;;;;;;3.50;3.20;;;;;;;16.79;72.18;99273.97;5024941;27;103365;-59
2022/06/11 03:40:21;;;;;;;3.00;2.80;;;;;;;16.74;72.33;99276.22;5010492;27;102656;-58
2022/06/11 03:42:49;;;;;;;4.20;3.45;;;;;;;16.70;72.44;99273.97;5031398;27;102810;-58
2022/06/11 03:45:20;;;;;;;3.20;2.90;;;;;;;16.70;72.63;99282.78;5028046;27;104280;-58
2022/06/11 03:47:50;;;;;;;3.13;2.63;;;;;;;16.77;72.20;99280.44;5025657;27;103192;-58
2022/06/11 03:50:22;;;;;;;3.20;2.90;;;;;;;16.76;72.37;99282.25;5025027;27;102739;-58
2022/06/11 03:52:50;;;;;;;3.60;3.30;;;;;;;16.75;72.47;99283.25;5023157;27;102672;-58
2022/06/11 03:55:20;;;;;;;2.90;2.70;;;;;;;16.86;71.47;99297.44;5025810;27;104120;-59
2022/06/11 03:57:48;;;;;;;3.67;3.38;;;;;;;16.89;71.70;99291.84;5030182;27;102971;-58
2022/06/11 04:01:14;;;;;;;4.28;3.60;;;;;;;16.71;72.71;99296.97;5038571;27;103256;-58
2022/06/11 04:03:10;;;;;;;2.90;2.70;;;;;;;16.83;72.14;99292.38;5022897;27;103719;-58
2022/06/11 04:05:43;;;;;;;4.68;3.35;;;;;;;16.88;71.81;99292.81;5031748;27;103258;-58
2022/06/11 04:08:13;;;;;;;3.22;2.92;;;;;;;16.84;71.54;99297.59;5033399;27;103407;-58
2022/06/11 04:10:43;;;;;;;4.00;3.20;;;;;;;16.68;72.43;99303.41;5027536;27;102660;-58
2022/06/11 04:13:12;;;;;;;3.13;2.83;;;;;;;16.85;72.35;99303.75;5027251;27;102683;-58
2022/06/11 04:15:42;;;;;;;3.47;3.10;;;;;;;16.97;71.80;99297.34;5021244;27;103285;-58
2022/06/11 04:18:21;;;;;;;3.60;3.28;;;;;;;16.85;72.25;99309.94;5028701;27;103285;-59
2022/06/11 04:20:49;;;;;;;3.13;2.83;;;;;;;17.05;71.40;99302.84;5028249;27;103996;-59
2022/06/11 04:23:17;;;;;;;3.70;3.40;;;;;;;17.05;71.55;99301.00;5031525;27;102740;-58
2022/06/11 04:25:47;;;;;;;3.20;2.80;;;;;;;17.15;70.75;99301.03;5022663;27;103538;-59
2022/06/11 04:28:15;;;;;;;4.30;3.50;;;;;;;17.02;71.68;99311.09;5022698;27;103246;-66
2022/06/11 04:30:43;;;;;;;3.50;3.20;;;;;;;17.06;71.37;99307.19;5025584;27;102558;-65
2022/06/11 04:33:11;;;;;;;4.00;3.50;;;;;;;16.89;72.11;99310.53;5030815;27;103676;-59
2022/06/11 04:35:39;;;;;;;4.18;3.28;;;;;;;16.97;72.08;99308.00;5021322;27;103382;-66
2022/06/11 04:38:07;;;;;;;4.13;3.60;;;;;;;17.05;71.51;99310.84;5021160;27;103317;-60
2022/06/11 04:40:36;;;;;;;3.45;3.15;;;;;;;17.09;71.62;99302.44;5030639;27;102770;-60
2022/06/11 04:43:05;;;;;;;3.92;3.30;;;;;;;17.07;71.44;99308.88;5034104;27;102752;-59
2022/06/11 04:45:34;;;;;;;4.60;3.75;;;;;;;16.88;72.47;99300.81;5018490;27;105366;-60
2022/06/11 04:48:03;;;;;;;5.32;3.80;;;;;;;16.97;72.44;99308.00;5022127;27;104040;-59
2022/06/11 04:50:33;;;;;;;3.92;3.53;;;;;;;17.02;72.47;99311.09;5023612;27;102750;-59
2022/06/11 04:53:01;;;;;;;4.00;3.60;;;;;;;16.98;72.71;99309.72;5027451;27;102849;-59
2022/06/11 04:55:29;;;;;;;5.37;3.70;;;;;;;17.08;72.23;99302.56;5027422;27;103341;-59
2022/06/11 04:57:57;;;;;;;4.00;3.60;;;;;;;16.79;73.27;99311.31;5027006;27;103291;-59
2022/06/11 05:00:29;;;;;;;3.30;3.00;;;;;;;17.23;71.89;99315.41;5019757;27;102752;-59
2022/06/11 05:02:58;;;;;;;3.93;3.53;;;;;;;17.33;71.47;99316.25;5034709;27;102986;-59
2022/06/11 05:05:26;;;;;;;3.58;3.28;;;;;;;17.40;71.59;99319.22;5025095;27;103291;-59
2022/06/11 05:07:56;;;;;;;3.45;3.15;;;;;;;17.57;70.43;99317.72;5022086;27;103211;-59
2022/06/11 05:10:29;;;;;;;3.50;3.20;;;;;;;17.63;70.29;99323.31;5028212;27;102673;-59
2022/06/11 05:12:57;;;;;;;4.73;3.40;;;;;;;17.49;70.60;99322.88;5029590;27;104120;-59
2022/06/11 05:15:26;;;;;;;3.30;3.00;;;;;;;17.64;70.31;99326.84;5029091;27;103443;-60
2022/06/11 05:17:56;;;;;;;4.47;3.20;;;;;;;17.73;69.67;99318.84;5030819;27;103007;-59
2022/06/11 05:20:24;;;;;;;3.50;3.20;;;;;;;17.82;69.11;99317.97;5047926;27;102683;-59
2022/06/11 05:22:53;;;;;;;2.70;2.50;;;;;;;18.06;68.84;99325.56;5030993;27;102947;-60
2022/06/11 05:25:22;;;;;;;3.00;2.80;;;;;;;18.08;69.04;99328.09;5033412;27;104573;-59
2022/06/11 05:27:50;;;;;;;2.50;2.30;;;;;;;18.29;68.54;99326.94;5030705;27;103241;-59
2022/06/11 05:30:22;;;;;;;3.10;2.80;;;;;;;18.43;67.91;99330.97;5025360;27;102759;-59
2022/06/11 05:32:52;;;;;;;3.10;2.90;;;;;;;18.45;67.92;99331.66;5026604;27;103863;-59
2022/06/11 05:35:24;;;;;;;4.15;2.83;;;;;;;18.50;67.88;99337.44;5023061;27;103251;-59
2022/06/11 05:37:54;;;;;;;2.33;2.13;;;;;;;18.72;66.78;99339.78;5027943;27;103438;-59
2022/06/11 05:40:25;;;;;;;2.85;2.63;;;;;;;18.89;66.33;99336.31;5023470;27;102810;-60
2022/06/11 05:42:53;;;;;;;2.17;2.00;;;;;;;19.01;66.81;99339.63;5030997;27;102941;-59
2022/06/11 05:45:26;;;;;;;2.78;2.47;;;;;;;19.06;66.24;99338.19;5025002;27;104007;-59
2022/06/11 05:47:57;;;;;;;2.78;2.58;;;;;;;19.06;66.02;99343.56;5021032;27;103231;-60
2022/06/11 05:50:29;;;;;;;2.47;2.23;;;;;;;19.19;65.88;99339.69;5020320;27;102885;-60
2022/06/11 05:52:59;;;;;;;2.90;2.67;;;;;;;19.28;66.14;99341.47;5025136;27;102816;-59
2022/06/11 05:55:34;;;;;;;3.00;2.42;;;;;;;19.27;66.44;99339.78;5024975;27;103235;-59
2022/06/11 05:58:04;;;;;;;5.83;3.50;;;;;;;18.28;67.94;99340.44;5021035;27;104374;-59
2022/06/11 06:00:35;;;;;;;2.70;2.50;;;;;;;18.99;66.95;99342.47;5025867;27;102671;-60
2022/06/11 06:03:04;;;;;;;4.60;3.30;;;;;;;18.96;65.96;99340.09;5024073;27;104070;-59
2022/06/11 06:05:34;;;;;;;3.15;2.80;;;;;;;18.96;66.48;99342.78;5032264;27;104387;-59
2022/06/11 06:08:02;;;;;;;3.20;2.75;;;;;;;19.40;65.33;99345.63;5029476;27;102761;-59
2022/06/11 06:10:29;;;;;;;3.28;2.60;;;;;;;19.59;65.47;99342.84;5031146;27;102659;-59
2022/06/11 06:13:00;;;;;;;4.50;3.20;;;;;;;19.58;64.40;99335.78;5031187;27;104475;-59
2022/06/11 06:15:31;;;;;;;4.15;3.00;;;;;;;19.62;64.75;99345.22;5034109;27;103901;-59
2022/06/11 06:17:59;;;;;;;2.85;2.60;;;;;;;19.95;63.57;99341.84;5031784;27;104187;-59
2022/06/11 06:20:28;;;;;;;2.90;2.60;;;;;;;19.86;64.38;99345.44;5017243;27;103297;-59
2022/06/11 06:22:56;;;;;;;2.90;2.50;;;;;;;20.12;62.85;99345.50;5022922;27;102913;-59
2022/06/11 06:25:24;;;;;;;3.40;2.38;;;;;;;20.27;62.36;99337.78;5025948;27;104209;-59
2022/06/11 06:27:52;;;;;;;2.83;2.60;;;;;;;19.95;64.11;99349.06;5026300;27;103211;-59
2022/06/11 06:30:21;;;;;;;3.13;2.63;;;;;;;20.41;63.48;99345.22;5029857;27;102736;-58
2022/06/11 06:32:49;;;;;;;3.58;2.80;;;;;;;20.62;62.68;99354.63;5036998;27;102817;-59
2022/06/11 06:35:17;;;;;;;3.45;2.67;;;;;;;20.68;62.31;99350.44;5032388;27;103809;-59
2022/06/11 06:37:46;;;;;;;3.03;2.47;;;;;;;20.90;61.79;99349.91;5022407;27;103655;-59
2022/06/11 06:40:14;;;;;;;2.63;2.30;;;;;;;21.04;61.38;99351.97;5023170;27;103086;-59
2022/06/11 06:42:43;;;;;;;3.42;2.50;;;;;;;20.96;61.40;99354.63;5029434;27;102687;-59
2022/06/11 06:45:11;;;;;;;2.70;2.30;;;;;;;20.94;61.36;99345.88;5029295;27;103308;-60
2022/06/11 06:47:39;;;;;;;2.42;2.22;;;;;;;21.24;60.79;99345.38;5024578;27;103254;-60
2022/06/11 06:50:08;;;;;;;2.50;2.27;;;;;;;21.41;60.08;99348.09;5029637;27;102900;-59
2022/06/11 06:52:36;;;;;;;2.40;2.00;;;;;;;21.55;60.82;99345.63;5037745;27;102693;-60
2022/06/11 06:55:06;;;;;;;2.40;2.20;;;;;;;21.65;60.08;99345.47;5022106;27;103357;-60
2022/06/11 06:57:34;;;;;;;3.08;2.20;;;;;;;21.65;59.98;99340.94;5023515;27;103882;-60
2022/06/11 07:00:05;;;;;;;3.97;2.58;;;;;;;21.45;58.32;99350.28;5040187;27;102719;-60
2022/06/11 07:02:33;;;;;;;3.30;2.40;;;;;;;21.43;58.73;99351.47;5038515;27;102726;-59
2022/06/11 07:05:01;;;;;;;2.65;2.15;;;;;;;21.91;57.56;99346.22;5022367;27;104611;-59
2022/06/11 07:07:29;;;;;;;2.50;1.90;;;;;;;22.31;55.74;99346.22;5030845;27;103294;-60
2022/06/11 07:09:58;;;;;;;2.97;1.77;;;;;;;22.43;55.17;99347.53;5028393;27;102672;-60
2022/06/11 07:12:28;;;;;;;3.20;2.13;;;;;;;22.34;55.64;99342.34;5024561;27;102898;-60
2022/06/11 07:14:56;;;;;;;3.20;2.03;;;;;;;22.45;55.59;99340.16;5025798;27;103327;-60
2022/06/11 07:17:25;;;;;;;2.58;2.00;;;;;;;22.57;54.56;99342.47;5027877;27;103209;-60
2022/06/11 07:19:59;;;;;;;2.97;1.98;;;;;;;22.77;54.17;99343.78;5040445;27;102819;-59
2022/06/11 07:22:33;;;;;;;2.03;1.70;;;;;;;22.94;53.92;99334.63;5035555;27;102713;-60
2022/06/11 07:25:04;;;;;;;4.07;2.40;;;;;;;21.95;54.17;99334.94;5029613;27;103334;-60
2022/06/11 07:27:37;;;;;;;3.53;2.30;;;;;;;22.19;53.98;99346.72;5027345;27;103336;-60
2022/06/11 07:30:09;;;;;;;3.38;2.10;;;;;;;22.65;52.60;99342.50;5025521;27;102916;-60
2022/06/11 07:32:38;;;;;;;3.97;2.30;;;;;;;22.21;52.97;99340.16;5033912;27;103914;-60
2022/06/11 07:35:10;;;;;;;4.07;2.25;;;;;;;22.76;53.69;99337.56;5034717;27;104236;-60
2022/06/11 07:37:39;;;;;;;4.70;2.53;;;;;;;23.15;53.29;99337.59;5027863;27;103215;-60
2022/06/11 07:40:09;;;;;;;2.83;1.95;;;;;;;23.36;50.74;99340.50;5030149;27;102855;-60
2022/06/11 07:42:38;;;;;;;3.13;2.10;;;;;;;23.31;50.78;99337.50;5029022;27;103930;-60
2022/06/11 07:45:08;;;;;;;2.13;1.77;;;;;;;24.23;50.03;99339.28;5024534;27;103340;-59
2022/06/11 07:47:54;;;;;;;3.25;2.03;;;;;;;23.80;49.91;99337.25;5023105;27;103696;-58
2022/06/11 07:50:26;;;;;;;3.50;2.20;;;;;;;24.42;50.22;99333.34;5029976;27;102720;-60
2022/06/11 07:52:54;;;;;;;4.00;2.40;;;;;;;24.71;49.62;99333.41;5014708;27;104624;-59
2022/06/11 07:55:23;;;;;;;2.72;2.10;;;;;;;25.08;48.55;99345.16;5031349;27;103396;-60
2022/06/11 07:57:53;;;;;;;3.78;2.00;;;;;;;25.27;48.33;99334.63;5029490;27;103489;-67
2022/06/11 08:00:27;;;;;;;5.43;2.00;;;;;;;25.26;47.90;99337.53;5036589;27;103739;-68
2022/06/11 08:02:55;;;;;;;2.13;1.65;;;;;;;25.91;45.64;99337.44;5029100;27;102860;-67
2022/06/11 08:05:23;;;;;;;3.65;1.73;;;;;;;26.41;45.22;99328.34;5025400;27;103348;-68
2022/06/11 08:07:52;;;;;;;3.35;2.00;;;;;;;26.36;46.29;99330.78;5020881;27;103193;-68
2022/06/11 08:10:22;;;;;;;3.60;2.00;;;;;;;26.81;45.16;99335.72;5027461;27;103050;-69
2022/06/11 08:12:54;;;;;;;4.73;1.90;;;;;;;26.79;45.82;99335.09;5031145;27;103559;-69
2022/06/11 08:15:22;;;;;;;2.38;1.85;;;;;;;27.14;45.46;99326.94;5031668;27;103348;-67
2022/06/11 08:17:51;;;;;;;3.85;2.03;;;;;;;27.53;44.46;99330.69;5027496;27;103267;-67
2022/06/11 08:20:22;;;;;;;2.63;1.60;;;;;;;27.78;43.29;99336.38;5016301;27;102953;-68
2022/06/11 08:22:52;;;;;;;3.75;1.90;;;;;;;28.01;45.03;99328.69;5032970;27;102765;-67
2022/06/11 08:25:20;;;;;;;3.08;2.00;;;;;;;26.88;43.56;99331.19;5017318;27;103336;-67
2022/06/11 08:27:48;;;;;;;3.97;2.00;;;;;;;27.01;43.45;99330.41;5002637;27;102976;-67
2022/06/11 08:30:20;;;;;;;2.47;1.77;;;;;;;26.70;44.51;99333.53;5040857;27;103001;-66
2022/06/11 08:32:51;;;;;;;3.70;2.00;;;;;;;25.58;46.04;99336.25;5029186;27;102707;-67
2022/06/11 08:35:24;;;;;;;3.88;2.10;;;;;;;26.70;45.59;99327.28;5026125;27;104062;-67
2022/06/11 08:37:52;;;;;;;3.67;1.80;;;;;;;27.93;45.41;99328.06;5030043;27;103162;-67
2022/06/11 08:40:24;;;;;;;3.70;2.00;;;;;;;28.47;42.48;99327.88;5018726;27;102853;-67
2022/06/11 08:42:59;;;;;;;3.28;1.80;;;;;;;29.07;43.36;99329.47;5017876;27;104069;-67
2022/06/11 08:45:35;;;;;;;5.07;2.00;;;;;;;29.42;41.19;99327.28;5033252;27;103239;-67
2022/06/11 08:48:13;;;;;;;2.25;1.70;;;;;;;28.33;42.45;99332.50;5020388;27;103207;-67
2022/06/11 08:50:52;;;;;;;2.35;1.70;;;;;;;29.01;41.92;99325.72;5022939;27;102984;-67
2022/06/11 08:53:21;;;;;;;4.13;1.87;;;;;;;28.13;41.66;99328.94;5044797;27;103032;-67
2022/06/11 08:55:49;;;;;;;4.18;1.90;;;;;;;29.69;41.30;99334.25;5009905;27;104049;-67
2022/06/11 08:58:35;;;;;;;3.60;1.88;;;;;;;29.43;39.22;99331.66;5025751;27;103024;-67
2022/06/11 09:01:12;;;;;;;4.00;2.15;;;;;;;28.54;41.55;99331.44;5022977;27;103193;-67
2022/06/11 09:04:02;;;;;;;4.35;1.95;;;;;;;28.95;41.02;99326.56;5014942;27;102850;-67
2022/06/11 09:06:50;;;;;;;3.00;1.83;;;;;;;29.59;41.29;99317.53;5022234;27;103559;-67
2022/06/11 09:09:31;;;;;;;2.10;1.70;;;;;;;29.82;39.94;99313.25;5025714;27;104678;-67
2022/06/11 09:12:23;;;;;;;3.35;1.60;;;;;;;30.13;38.57;99309.66;5023444;27;102682;-68
2022/06/11 09:15:12;;;;;;;3.53;1.70;;;;;;;30.47;37.22;99299.34;5022198;27;104326;-67
2022/06/11 09:18:15;;;;;;;3.90;1.70;;;;;;;29.98;39.31;99311.06;5025581;27;103762;-68
2022/06/11 09:20:56;;;;;;;3.25;1.77;;;;;;;30.52;39.27;99308.53;5005076;27;103269;-68
2022/06/11 09:24:12;;;;;;;3.93;1.50;;;;;;;30.31;39.60;99301.56;5026032;27;102782;-60
2022/06/11 09:26:45;;;;;;;2.60;1.40;;;;;;;31.15;35.66;99298.22;4962807;28;104401;-61
2022/06/11 09:29:17;;;;;;;4.80;1.70;;;;;;;31.31;34.57;99294.03;4960633;28;103407;-68
2022/06/11 09:31:48;;;;;;;4.05;1.70;;;;;;;31.02;35.85;99297.56;4994787;27;103204;-67
2022/06/11 09:34:40;;;;;;;2.70;1.60;;;;;;;30.62;36.65;99291.66;5028367;27;102852;-68
2022/06/11 09:37:15;;;;;;;3.63;1.80;;;;;;;29.62;36.74;99300.78;5032010;27;102668;-67
2022/06/11 09:39:52;;;;;;;2.88;1.58;;;;;;;29.15;37.65;99300.16;5027575;27;103389;-68
2022/06/11 09:42:50;;;;;;;3.88;1.98;;;;;;;30.08;36.13;99293.16;5025394;27;103197;-68
2022/06/11 09:45:25;;;;;;;3.08;1.70;;;;;;;30.09;37.23;99302.97;5023413;27;103052;-68
2022/06/11 09:48:08;;;;;;;3.67;1.30;;;;;;;30.94;36.06;99296.78;5020103;27;103943;-67
2022/06/11 09:50:42;;;;;;;3.22;1.60;;;;;;;30.12;35.65;99297.09;5026978;27;103386;-67
2022/06/11 09:53:22;;;;;;;4.70;1.60;;;;;;;30.84;36.20;99295.63;5015158;27;102986;-68
2022/06/11 09:55:57;;;;;;;4.50;1.70;;;;;;;30.95;36.00;99292.16;5030515;27;102618;-69
2022/06/11 09:58:35;;;;;;;2.97;1.97;;;;;;;30.73;35.18;99299.09;5030284;27;103243;-69
2022/06/11 10:01:11;;;;;;;4.50;2.00;;;;;;;29.37;36.14;99305.31;5028372;27;104621;-69
2022/06/11 10:03:44;;;;;;;2.95;1.50;;;;;;;30.61;36.45;99300.88;5029007;27;103865;-70
2022/06/11 10:06:19;;;;;;;4.25;1.55;;;;;;;30.32;35.57;99297.78;5020633;27;103121;-71
2022/06/11 10:08:52;;;;;;;4.45;1.80;;;;;;;29.97;34.60;99303.94;5022640;27;102728;-70
2022/06/11 10:11:25;;;;;;;2.83;1.83;;;;;;;30.27;35.28;99303.06;5027210;27;103318;-70
2022/06/11 10:13:57;;;;;;;4.07;1.60;;;;;;;31.06;34.27;99302.31;5021589;27;103143;-70
2022/06/11 10:16:33;;;;;;;3.40;1.75;;;;;;;29.61;35.41;99299.13;5026064;27;102778;-70
2022/06/11 10:19:12;;;;;;;3.73;1.53;;;;;;;30.14;37.85;99305.06;5024125;27;102760;-69
2022/06/11 10:21:56;;;;;;;3.50;1.45;;;;;;;31.26;35.68;99305.63;5027591;27;103266;-70
2022/06/11 10:24:28;;;;;;;4.73;3.10;;;;;;;31.58;34.44;99302.75;5048666;27;103277;-70
2022/06/11 10:27:01;;;;;;;3.90;2.20;;;;;;;31.67;34.38;99301.31;5030233;27;103018;-71
2022/06/11 10:29:34;;;;;;;2.97;1.88;;;;;;;31.91;35.32;99308.53;5027435;27;102998;-71
2022/06/11 10:32:09;;;;;;;2.03;1.60;;;;;;;32.00;35.14;99301.69;5021122;27;103914;-70
2022/06/11 10:34:43;;;;;;;4.30;1.80;;;;;;;31.95;33.43;99301.53;5029358;27;103196;-70
2022/06/11 10:37:19;;;;;;;3.33;1.60;;;;;;;31.64;34.15;99301.81;5030347;27;102612;-70
2022/06/11 10:39:53;;;;;;;3.27;1.60;;;;;;;31.30;33.90;99300.56;5014732;27;102627;-70
2022/06/11 10:42:30;;;;;;;3.25;1.80;;;;;;;30.37;34.51;99297.97;5022644;27;103270;-70
2022/06/11 10:44:58;;;;;;;3.78;1.65;;;;;;;31.24;33.84;99296.84;5021760;27;104255;-71
2022/06/11 10:47:30;;;;;;;4.90;2.08;;;;;;;31.05;34.69;99294.38;5017892;27;103162;-70
2022/06/11 10:50:08;;;;;;;4.07;1.88;;;;;;;29.69;36.56;99282.53;5018333;27;103016;-70
2022/06/11 10:52:44;;;;;;;3.70;2.20;;;;;;;29.87;35.73;99288.06;5015323;27;103327;-69
2022/06/11 10:55:16;;;;;;;3.33;1.80;;;;;;;29.27;36.93;99287.59;5016696;27;103212;-70
2022/06/11 10:57:47;;;;;;;3.30;2.13;;;;;;;31.15;36.66;99287.31;5012408;27;102953;-70
2022/06/11 11:00:20;;;;;;;3.53;1.70;;;;;;;31.61;34.44;99286.69;5022977;27;103952;-71
2022/06/11 11:02:52;;;;;;;3.25;1.70;;;;;;;31.14;33.30;99279.34;5028080;27;103273;-70
2022/06/11 11:05:22;;;;;;;3.83;1.73;;;;;;;30.42;36.36;99279.06;5019398;27;103566;-71
2022/06/11 11:07:58;;;;;;;5.07;2.00;;;;;;;29.12;37.38;99283.41;5024522;27;102924;-71
2022/06/11 11:10:43;;;;;;;3.80;1.67;;;;;;;28.57;38.31;99276.66;5023371;27;102927;-70
2022/06/11 11:13:20;;;;;;;3.00;1.55;;;;;;;28.97;37.43;99280.94;5017657;27;103115;-71
2022/06/11 11:15:57;;;;;;;3.30;1.30;;;;;;;31.24;35.60;99279.66;5020998;27;103244;-69
2022/06/11 11:18:28;;;;;;;4.13;1.73;;;;;;;31.20;33.23;99273.81;5024137;27;102653;-70
2022/06/11 11:20:57;;;;;;;3.53;1.70;;;;;;;31.17;34.98;99263.34;5026519;27;102755;-70
2022/06/11 11:23:35;;;;;;;3.90;1.60;;;;;;;31.93;34.80;99262.69;5049725;27;103284;-70
2022/06/11 11:26:11;;;;;;;3.50;1.70;;;;;;;32.31;34.41;99260.38;5032632;27;103228;-70
2022/06/11 11:28:54;;;;;;;3.40;1.85;;;;;;;29.23;37.08;99270.00;5023927;27;102685;-63
2022/06/11 11:31:26;;;;;;;2.83;1.50;;;;;;;29.60;36.24;99264.78;5023536;27;103824;-70
2022/06/11 11:34:00;;;;;;;4.55;3.15;;;;;;;30.28;36.79;99258.41;5033269;27;103620;-69
2022/06/11 11:36:29;;;;;;;2.15;1.63;;;;;;;30.68;35.61;99255.31;5014710;27;103485;-70
2022/06/11 11:39:19;;;;;;;4.55;1.67;;;;;;;29.49;36.23;99252.69;5027548;27;103037;-70
2022/06/11 11:41:52;;;;;;;3.73;1.90;;;;;;;31.09;35.34;99252.75;5032904;27;103760;-70
2022/06/11 11:44:21;;;;;;;3.13;1.83;;;;;;;31.76;35.10;99250.78;5033645;27;103681;-70
2022/06/11 11:46:54;;;;;;;4.18;1.90;;;;;;;31.48;33.76;99246.78;5029009;27;103497;-71
2022/06/11 11:49:25;;;;;;;5.18;1.92;;;;;;;29.87;36.25;99249.94;5030613;27;102745;-70
2022/06/11 11:51:53;;;;;;;4.63;2.10;;;;;;;28.33;37.08;99255.56;5028802;27;103062;-70